sensor_id;sensor_type;location;lat;lon;timestamp;temperature;humidity
13699;DHT22;6921;53.642;9.956;2023-02-28T03:19:23;2.20;99.90
13699;DHT22;6921;53.642;9.956;2023-02-28T08:05:47;5.10;99.90
13699;DHT22;6921;53.642;9.956;2023-02-28T09:28:44;8.20;1.00
13699;DHT22;6921;53.642;9.956;2023-02-28T09:30:49;8.50;1.00
13699;DHT22;6921;53.642;9.956;2023-02-28T09:41:13;8.80;99.90
13699;DHT22;6921;53.642;9.956;2023-02-28T09:45:27;8.20;1.00
13699;DHT22;6921;53.642;9.956;2023-02-28T09:49:40;8.10;1.00
13699;DHT22;6921;53.642;9.956;2023-02-28T09:51:50;8.10;1.00
13699;DHT22;6921;53.642;9.956;2023-02-28T09:58:17;8.30;1.00
13699;DHT22;6921;53.642;9.956;2023-02-28T10:04:52;8.30;1.00
13699;DHT22;6921;53.642;9.956;2023-02-28T10:13:19;8.00;1.00
13699;DHT22;6921;53.642;9.956;2023-02-28T10:15:27;8.50;1.00
13699;DHT22;6921;53.642;9.956;2023-02-28T10:17:38;9.30;56.40
13699;DHT22;6921;53.642;9.956;2023-02-28T10:19:58;10.70;99.90
13699;DHT22;6921;53.642;9.956;2023-02-28T10:22:08;11.10;99.90
13699;DHT22;6921;53.642;9.956;2023-02-28T10:24:20;11.00;99.90
13699;DHT22;6921;53.642;9.956;2023-02-28T10:26:26;11.50;99.90
13699;DHT22;6921;53.642;9.956;2023-02-28T10:30:37;12.30;99.90
13699;DHT22;6921;53.642;9.956;2023-02-28T10:32:47;12.50;99.90
13699;DHT22;6921;53.642;9.956;2023-02-28T10:39:40;13.10;99.90
13699;DHT22;6921;53.642;9.956;2023-02-28T10:46:00;13.10;99.90
13699;DHT22;6921;53.642;9.956;2023-02-28T10:48:24;12.70;99.90
13699;DHT22;6921;53.642;9.956;2023-02-28T10:50:42;12.70;99.90
13699;DHT22;6921;53.642;9.956;2023-02-28T10:57:15;12.30;99.90
13699;DHT22;6921;53.642;9.956;2023-02-28T11:07:51;11.70;99.90
13699;DHT22;6921;53.642;9.956;2023-02-28T11:16:09;12.10;99.90
13699;DHT22;6921;53.642;9.956;2023-02-28T11:18:23;11.90;99.90
13699;DHT22;6921;53.642;9.956;2023-02-28T11:20:30;12.20;99.90
13699;DHT22;6921;53.642;9.956;2023-02-28T11:22:36;12.10;99.90
13699;DHT22;6921;53.642;9.956;2023-02-28T11:24:43;12.30;99.90
13699;DHT22;6921;53.642;9.956;2023-02-28T11:29:03;12.60;99.90
13699;DHT22;6921;53.642;9.956;2023-02-28T11:33:28;13.70;99.90
13699;DHT22;6921;53.642;9.956;2023-02-28T11:35:37;13.30;99.90
13699;DHT22;6921;53.642;9.956;2023-02-28T11:42:08;14.70;99.90
13699;DHT22;6921;53.642;9.956;2023-02-28T11:46:40;15.70;99.90
13699;DHT22;6921;53.642;9.956;2023-02-28T11:48:52;15.50;99.90
13699;DHT22;6921;53.642;9.956;2023-02-28T11:53:19;16.30;99.90
13699;DHT22;6921;53.642;9.956;2023-02-28T11:55:26;16.20;99.90
13699;DHT22;6921;53.642;9.956;2023-02-28T11:57:45;16.00;99.90
13699;DHT22;6921;53.642;9.956;2023-02-28T11:59:57;15.60;99.90
13699;DHT22;6921;53.642;9.956;2023-02-28T12:02:24;15.00;99.90
13699;DHT22;6921;53.642;9.956;2023-02-28T12:04:42;14.90;99.90
13699;DHT22;6921;53.642;9.956;2023-02-28T12:06:56;14.50;99.90
13699;DHT22;6921;53.642;9.956;2023-02-28T12:09:09;15.10;99.90
13699;DHT22;6921;53.642;9.956;2023-02-28T12:11:19;14.90;99.90
13699;DHT22;6921;53.642;9.956;2023-02-28T12:13:36;14.50;99.90
13699;DHT22;6921;53.642;9.956;2023-02-28T12:16:23;15.30;99.90
13699;DHT22;6921;53.642;9.956;2023-02-28T12:18:45;15.30;99.90
13699;DHT22;6921;53.642;9.956;2023-02-28T12:20:58;15.20;99.90
13699;DHT22;6921;53.642;9.956;2023-02-28T12:23:26;16.20;99.90
13699;DHT22;6921;53.642;9.956;2023-02-28T12:25:50;17.40;99.90
13699;DHT22;6921;53.642;9.956;2023-02-28T12:30:02;16.40;99.90
13699;DHT22;6921;53.642;9.956;2023-02-28T12:32:09;16.20;99.90
13699;DHT22;6921;53.642;9.956;2023-02-28T12:34:19;16.20;99.90
13699;DHT22;6921;53.642;9.956;2023-02-28T12:36:24;17.20;99.90
13699;DHT22;6921;53.642;9.956;2023-02-28T12:38:36;19.90;99.90
13699;DHT22;6921;53.642;9.956;2023-02-28T12:40:44;17.50;99.90
13699;DHT22;6921;53.642;9.956;2023-02-28T12:42:51;17.40;99.90
13699;DHT22;6921;53.642;9.956;2023-02-28T12:44:59;17.50;99.90
13699;DHT22;6921;53.642;9.956;2023-02-28T12:47:04;17.60;99.90
13699;DHT22;6921;53.642;9.956;2023-02-28T12:49:15;16.90;99.90
13699;DHT22;6921;53.642;9.956;2023-02-28T12:51:19;17.30;99.90
13699;DHT22;6921;53.642;9.956;2023-02-28T12:53:28;13.70;99.90
13699;DHT22;6921;53.642;9.956;2023-02-28T12:55:40;16.80;99.90
13699;DHT22;6921;53.642;9.956;2023-02-28T12:57:50;16.70;99.90
13699;DHT22;6921;53.642;9.956;2023-02-28T12:59:57;16.90;99.90
13699;DHT22;6921;53.642;9.956;2023-02-28T13:05:10;17.60;99.90
13699;DHT22;6921;53.642;9.956;2023-02-28T13:07:40;17.40;99.90
13699;DHT22;6921;53.642;9.956;2023-02-28T13:09:54;17.20;99.90
13699;DHT22;6921;53.642;9.956;2023-02-28T13:14:03;17.20;99.90
13699;DHT22;6921;53.642;9.956;2023-02-28T13:16:09;16.70;99.90
13699;DHT22;6921;53.642;9.956;2023-02-28T13:18:29;15.90;99.90
13699;DHT22;6921;53.642;9.956;2023-02-28T13:20:35;15.60;99.90
13699;DHT22;6921;53.642;9.956;2023-02-28T13:27:18;14.30;99.90
13699;DHT22;6921;53.642;9.956;2023-02-28T13:29:31;13.10;99.90
13699;DHT22;6921;53.642;9.956;2023-02-28T13:36:26;10.80;99.90
13699;DHT22;6921;53.642;9.956;2023-02-28T13:38:38;10.50;99.90
13699;DHT22;6921;53.642;9.956;2023-02-28T13:42:50;10.20;99.90
13699;DHT22;6921;53.642;9.956;2023-02-28T13:47:41;10.10;99.90
13699;DHT22;6921;53.642;9.956;2023-02-28T13:51:51;9.80;99.90
13699;DHT22;6921;53.642;9.956;2023-02-28T13:54:00;9.70;99.90
13699;DHT22;6921;53.642;9.956;2023-02-28T13:56:19;9.50;99.90
13699;DHT22;6921;53.642;9.956;2023-02-28T13:58:43;9.30;99.90
13699;DHT22;6921;53.642;9.956;2023-02-28T14:01:03;9.50;99.90
13699;DHT22;6921;53.642;9.956;2023-02-28T14:03:44;9.50;99.90
13699;DHT22;6921;53.642;9.956;2023-02-28T14:06:16;9.30;99.90
13699;DHT22;6921;53.642;9.956;2023-02-28T14:08:22;9.10;99.90
13699;DHT22;6921;53.642;9.956;2023-02-28T14:13:10;8.90;99.90
13699;DHT22;6921;53.642;9.956;2023-02-28T14:22:12;8.70;99.90
13699;DHT22;6921;53.642;9.956;2023-02-28T14:24:46;8.60;99.90
13699;DHT22;6921;53.642;9.956;2023-02-28T14:27:07;8.60;99.90
13699;DHT22;6921;53.642;9.956;2023-02-28T14:29:26;8.80;99.90
13699;DHT22;6921;53.642;9.956;2023-02-28T14:31:36;8.80;99.90
13699;DHT22;6921;53.642;9.956;2023-02-28T14:34:03;8.90;99.90
13699;DHT22;6921;53.642;9.956;2023-02-28T14:36:12;8.90;99.90
13699;DHT22;6921;53.642;9.956;2023-02-28T14:38:19;8.90;99.90
13699;DHT22;6921;53.642;9.956;2023-02-28T14:40:27;8.80;99.90
13699;DHT22;6921;53.642;9.956;2023-02-28T14:42:32;8.70;99.90
13699;DHT22;6921;53.642;9.956;2023-02-28T14:46:41;8.70;99.90
13699;DHT22;6921;53.642;9.956;2023-02-28T14:50:52;8.80;99.90
13699;DHT22;6921;53.642;9.956;2023-02-28T14:59:24;8.70;99.90
13699;DHT22;6921;53.642;9.956;2023-02-28T15:07:39;8.50;99.90
13699;DHT22;6921;53.642;9.956;2023-02-28T15:11:48;8.30;99.90
13699;DHT22;6921;53.642;9.956;2023-02-28T15:20:11;8.40;99.90
13699;DHT22;6921;53.642;9.956;2023-02-28T15:24:30;8.20;99.90
13699;DHT22;6921;53.642;9.956;2023-02-28T15:26:37;8.30;99.90
13699;DHT22;6921;53.642;9.956;2023-02-28T15:30:54;8.20;99.90
13699;DHT22;6921;53.642;9.956;2023-02-28T15:33:06;8.20;99.90
13699;DHT22;6921;53.642;9.956;2023-02-28T15:35:25;8.20;99.90
13699;DHT22;6921;53.642;9.956;2023-02-28T15:37:38;8.20;99.90
13699;DHT22;6921;53.642;9.956;2023-02-28T15:39:44;8.30;99.90
13699;DHT22;6921;53.642;9.956;2023-02-28T15:44:16;8.30;99.90
13699;DHT22;6921;53.642;9.956;2023-02-28T15:48:24;8.40;99.90
13699;DHT22;6921;53.642;9.956;2023-02-28T15:52:38;8.30;99.90
13699;DHT22;6921;53.642;9.956;2023-02-28T15:56:50;8.30;99.90
13699;DHT22;6921;53.642;9.956;2023-02-28T16:01:20;8.10;99.90
13699;DHT22;6921;53.642;9.956;2023-02-28T16:03:34;8.00;99.90
13699;DHT22;6921;53.642;9.956;2023-02-28T16:18:08;7.40;99.90
13699;DHT22;6921;53.642;9.956;2023-02-28T16:36:46;6.90;50.30
13699;DHT22;6921;53.642;9.956;2023-02-28T16:40:57;6.70;26.60
13699;DHT22;6921;53.642;9.956;2023-02-28T16:43:05;6.70;4.80
13699;DHT22;6921;53.642;9.956;2023-02-28T17:08:01;5.50;48.80
13699;DHT22;6921;53.642;9.956;2023-02-28T17:10:12;5.40;47.30
13699;DHT22;6921;53.642;9.956;2023-02-28T17:12:16;5.40;40.80
13699;DHT22;6921;53.642;9.956;2023-02-28T17:16:26;5.20;57.90
13699;DHT22;6921;53.642;9.956;2023-02-28T17:18:31;5.70;37.90
13699;DHT22;6921;53.642;9.956;2023-02-28T17:20:35;5.10;42.90
13699;DHT22;6921;53.642;9.956;2023-02-28T17:22:38;4.90;29.10
13699;DHT22;6921;53.642;9.956;2023-02-28T17:24:42;4.90;71.10
13699;DHT22;6921;53.642;9.956;2023-02-28T17:26:47;4.80;99.10
13699;DHT22;6921;53.642;9.956;2023-02-28T17:28:51;5.00;91.70
13699;DHT22;6921;53.642;9.956;2023-02-28T17:30:55;5.10;94.40
13699;DHT22;6921;53.642;9.956;2023-02-28T17:32:58;5.30;86.50
13699;DHT22;6921;53.642;9.956;2023-02-28T17:35:01;4.90;93.30
13699;DHT22;6921;53.642;9.956;2023-02-28T17:37:04;4.90;99.90
13699;DHT22;6921;53.642;9.956;2023-02-28T17:39:09;4.60;99.90
13699;DHT22;6921;53.642;9.956;2023-02-28T17:41:16;4.70;99.90
13699;DHT22;6921;53.642;9.956;2023-02-28T17:43:19;4.90;99.90
13699;DHT22;6921;53.642;9.956;2023-02-28T17:57:44;3.90;99.90
13699;DHT22;6921;53.642;9.956;2023-02-28T18:01:51;3.90;99.90
13699;DHT22;6921;53.642;9.956;2023-02-28T18:03:54;3.70;99.90
13699;DHT22;6921;53.642;9.956;2023-02-28T18:05:58;3.60;99.90
13699;DHT22;6921;53.642;9.956;2023-02-28T18:08:01;3.50;99.90
13699;DHT22;6921;53.642;9.956;2023-02-28T18:10:06;3.40;99.90
13699;DHT22;6921;53.642;9.956;2023-02-28T18:12:09;3.40;99.90
13699;DHT22;6921;53.642;9.956;2023-02-28T18:14:14;3.40;99.90
13699;DHT22;6921;53.642;9.956;2023-02-28T18:16:19;3.30;99.90
13699;DHT22;6921;53.642;9.956;2023-02-28T18:18:23;3.30;99.90
13699;DHT22;6921;53.642;9.956;2023-02-28T18:20:26;3.50;99.90
13699;DHT22;6921;53.642;9.956;2023-02-28T18:22:30;4.40;99.90
13699;DHT22;6921;53.642;9.956;2023-02-28T18:24:34;3.10;99.90
13699;DHT22;6921;53.642;9.956;2023-02-28T18:26:38;3.20;99.90
13699;DHT22;6921;53.642;9.956;2023-02-28T18:28:41;3.70;99.90
13699;DHT22;6921;53.642;9.956;2023-02-28T18:30:46;3.80;99.90
13699;DHT22;6921;53.642;9.956;2023-02-28T18:32:49;3.40;99.90
13699;DHT22;6921;53.642;9.956;2023-02-28T18:34:52;3.20;99.90
13699;DHT22;6921;53.642;9.956;2023-02-28T18:36:55;3.00;99.90
13699;DHT22;6921;53.642;9.956;2023-02-28T18:38:59;2.80;99.90
13699;DHT22;6921;53.642;9.956;2023-02-28T18:41:03;3.20;99.90
13699;DHT22;6921;53.642;9.956;2023-02-28T18:43:08;2.90;99.90
13699;DHT22;6921;53.642;9.956;2023-02-28T18:45:11;2.70;99.90
13699;DHT22;6921;53.642;9.956;2023-02-28T18:47:16;2.80;99.90
13699;DHT22;6921;53.642;9.956;2023-02-28T18:49:20;2.80;99.90
13699;DHT22;6921;53.642;9.956;2023-02-28T18:51:24;3.10;99.90
13699;DHT22;6921;53.642;9.956;2023-02-28T18:53:27;2.70;99.90
13699;DHT22;6921;53.642;9.956;2023-02-28T20:05:59;1.60;99.90
13699;DHT22;6921;53.642;9.956;2023-02-28T20:43:19;1.00;99.90
13699;DHT22;6921;53.642;9.956;2023-02-28T20:55:52;0.80;99.90
13699;DHT22;6921;53.642;9.956;2023-02-28T21:00:01;0.80;99.90
13699;DHT22;6921;53.642;9.956;2023-02-28T21:31:02;0.60;99.90
13699;DHT22;6921;53.642;9.956;2023-02-28T21:33:07;0.60;99.90
13699;DHT22;6921;53.642;9.956;2023-02-28T21:39:18;0.50;99.90
13699;DHT22;6921;53.642;9.956;2023-02-28T21:45:30;0.30;99.90
13699;DHT22;6921;53.642;9.956;2023-02-28T21:47:35;2.60;99.90
13699;DHT22;6921;53.642;9.956;2023-02-28T21:49:39;0.40;99.90
13699;DHT22;6921;53.642;9.956;2023-02-28T21:51:43;1.50;99.90
13699;DHT22;6921;53.642;9.956;2023-02-28T21:53:47;0.70;99.90
13699;DHT22;6921;53.642;9.956;2023-02-28T21:55:50;0.80;99.90
13699;DHT22;6921;53.642;9.956;2023-02-28T21:57:53;1.30;99.90
13699;DHT22;6921;53.642;9.956;2023-02-28T21:59:56;0.50;99.90
13699;DHT22;6921;53.642;9.956;2023-02-28T22:01:59;-0.40;99.90
13699;DHT22;6921;53.642;9.956;2023-02-28T22:04:03;2.10;99.90
13699;DHT22;6921;53.642;9.956;2023-02-28T22:06:13;0.60;99.90
13699;DHT22;6921;53.642;9.956;2023-02-28T22:08:17;2.80;99.90
13699;DHT22;6921;53.642;9.956;2023-02-28T22:10:20;0.80;99.90
13699;DHT22;6921;53.642;9.956;2023-02-28T22:12:23;0.60;99.90
13699;DHT22;6921;53.642;9.956;2023-02-28T22:14:26;0.70;99.90
13699;DHT22;6921;53.642;9.956;2023-02-28T22:16:30;0.30;99.90
13699;DHT22;6921;53.642;9.956;2023-02-28T22:18:51;0.80;99.90
13699;DHT22;6921;53.642;9.956;2023-02-28T22:20:55;0.10;99.90
13699;DHT22;6921;53.642;9.956;2023-02-28T22:22:59;2.20;99.90
13699;DHT22;6921;53.642;9.956;2023-02-28T22:25:03;0.20;99.90
13699;DHT22;6921;53.642;9.956;2023-02-28T22:27:06;0.20;99.90
13699;DHT22;6921;53.642;9.956;2023-02-28T22:29:09;1.30;99.90
13699;DHT22;6921;53.642;9.956;2023-02-28T22:31:14;0.20;99.90
13699;DHT22;6921;53.642;9.956;2023-02-28T22:33:18;1.80;99.90
13699;DHT22;6921;53.642;9.956;2023-02-28T22:35:21;0.70;99.90
13699;DHT22;6921;53.642;9.956;2023-02-28T22:37:24;1.70;99.90
13699;DHT22;6921;53.642;9.956;2023-02-28T22:39:28;0.30;99.90
13699;DHT22;6921;53.642;9.956;2023-02-28T22:41:32;-0.20;99.90
13699;DHT22;6921;53.642;9.956;2023-02-28T22:45:39;0.00;99.90
13699;DHT22;6921;53.642;9.956;2023-02-28T22:47:42;0.10;99.90
13699;DHT22;6921;53.642;9.956;2023-02-28T22:49:45;1.30;99.90
13699;DHT22;6921;53.642;9.956;2023-02-28T22:51:48;-0.40;99.90
13699;DHT22;6921;53.642;9.956;2023-02-28T22:53:52;1.90;99.90
13699;DHT22;6921;53.642;9.956;2023-02-28T22:55:57;0.80;99.90
13699;DHT22;6921;53.642;9.956;2023-02-28T22:58:00;0.40;99.90
13699;DHT22;6921;53.642;9.956;2023-02-28T23:00:05;0.00;99.90
13699;DHT22;6921;53.642;9.956;2023-02-28T23:02:10;-0.10;99.90
13699;DHT22;6921;53.642;9.956;2023-02-28T23:04:13;0.10;99.90
13699;DHT22;6921;53.642;9.956;2023-02-28T23:06:19;0.10;99.90
13699;DHT22;6921;53.642;9.956;2023-02-28T23:08:23;0.40;99.90
13699;DHT22;6921;53.642;9.956;2023-02-28T23:10:26;-0.30;99.90
13699;DHT22;6921;53.642;9.956;2023-02-28T23:12:30;0.40;99.90
13699;DHT22;6921;53.642;9.956;2023-02-28T23:14:33;0.90;99.90
13699;DHT22;6921;53.642;9.956;2023-02-28T23:16:38;-0.30;99.90
13699;DHT22;6921;53.642;9.956;2023-02-28T23:18:42;0.00;99.90
13699;DHT22;6921;53.642;9.956;2023-02-28T23:20:45;0.20;99.90
13699;DHT22;6921;53.642;9.956;2023-02-28T23:22:48;-0.30;99.90
13699;DHT22;6921;53.642;9.956;2023-02-28T23:24:52;-0.40;99.90
13699;DHT22;6921;53.642;9.956;2023-02-28T23:26:56;0.00;99.90
13699;DHT22;6921;53.642;9.956;2023-02-28T23:29:01;2.50;99.90
13699;DHT22;6921;53.642;9.956;2023-02-28T23:31:04;2.50;99.90
13699;DHT22;6921;53.642;9.956;2023-02-28T23:37:14;-0.20;99.90
13699;DHT22;6921;53.642;9.956;2023-02-28T23:39:18;1.20;99.90
13699;DHT22;6921;53.642;9.956;2023-02-28T23:41:22;-0.10;99.90
13699;DHT22;6921;53.642;9.956;2023-02-28T23:43:26;0.00;99.90
13699;DHT22;6921;53.642;9.956;2023-02-28T23:45:30;0.00;99.90
13699;DHT22;6921;53.642;9.956;2023-02-28T23:47:33;0.10;99.90
13699;DHT22;6921;53.642;9.956;2023-02-28T23:49:37;1.00;99.90
13699;DHT22;6921;53.642;9.956;2023-02-28T23:51:40;-0.10;99.90
13699;DHT22;6921;53.642;9.956;2023-02-28T23:53:44;0.60;99.90
13699;DHT22;6921;53.642;9.956;2023-02-28T23:55:47;1.50;99.90
13699;DHT22;6921;53.642;9.956;2023-02-28T23:57:50;1.70;99.90
13699;DHT22;6921;53.642;9.956;2023-02-28T23:59:53;1.90;99.90
